Time;durP1;ratioP1;P1;durP2;ratioP2;P2;SDS_P1;SDS_P2;PMS_P1;PMS_P2;Temp;Humidity;BMP_temperature;BMP_pressure;BME280_temperature;BME280_humidity;BME280_pressure;Samples;Min_cycle;Max_cycle;Signal;HPM_P1;HPM_P2
2021/04/17 00:03:40;;;;;;;1.40;0.40;;;6.40;99.90;;;;;;13076953;22;20015;-45
2021/04/17 00:09:06;;;;;;;9.60;0.93;;;6.30;99.90;;;;;;13075508;22;20019;-45
2021/04/17 00:14:31;;;;;;;1.00;0.50;;;6.30;99.90;;;;;;13078691;22;20034;-45
2021/04/17 00:19:53;;;;;;;2.38;1.05;;;6.30;99.90;;;;;;13076923;22;20014;-45
2021/04/17 00:25:14;;;;;;;1.00;0.35;;;6.30;99.90;;;;;;13079025;22;20409;-45
2021/04/17 00:30:35;;;;;;;0.40;0.30;;;6.20;99.90;;;;;;13077098;22;20046;-45
2021/04/17 00:35:56;;;;;;;1.33;0.75;;;6.20;99.90;;;;;;13078224;22;20006;-45
2021/04/17 00:41:17;;;;;;;3.45;0.73;;;6.20;99.90;;;;;;13079560;22;20011;-45
2021/04/17 00:46:39;;;;;;;1.02;0.15;;;6.00;99.90;;;;;;13080262;22;20014;-45
2021/04/17 00:52:01;;;;;;;0.60;0.30;;;5.90;99.90;;;;;;13078351;22;20010;-45
2021/04/17 00:57:22;;;;;;;0.65;0.20;;;5.80;99.90;;;;;;13080363;22;20314;-45
2021/04/17 01:02:50;;;;;;;1.55;0.40;;;5.70;99.90;;;;;;13076394;22;20039;-45
2021/04/17 01:08:30;;;;;;;2.22;0.30;;;5.60;99.90;;;;;;13077869;22;20350;-45
2021/04/17 01:13:53;;;;;;;0.63;0.40;;;5.60;99.90;;;;;;13077511;22;20381;-45
2021/04/17 01:19:42;;;;;;;1.33;0.32;;;5.70;99.90;;;;;;13077186;22;20127;-45
2021/04/17 01:25:13;;;;;;;1.67;0.50;;;5.60;99.90;;;;;;13076838;22;20381;-45
2021/04/17 01:30:34;;;;;;;1.42;0.40;;;5.60;99.90;;;;;;13074591;22;20026;-45
2021/04/17 01:35:57;;;;;;;0.10;0.10;;;5.50;99.90;;;;;;13074096;22;20022;-45
2021/04/17 01:41:22;;;;;;;1.00;0.40;;;5.40;99.90;;;;;;13077503;22;20232;-45
2021/04/17 01:46:46;;;;;;;1.05;0.30;;;5.20;99.90;;;;;;13079090;22;20018;-45
2021/04/17 01:52:10;;;;;;;1.00;0.38;;;5.20;99.90;;;;;;13077625;22;20064;-45
2021/04/17 01:57:32;;;;;;;0.70;0.20;;;5.10;99.90;;;;;;13079455;22;20015;-45
2021/04/17 02:02:53;;;;;;;1.73;0.30;;;5.00;99.90;;;;;;13080009;22;20474;-45
2021/04/17 02:08:14;;;;;;;0.75;0.30;;;4.90;99.90;;;;;;13080970;22;20087;-45
2021/04/17 02:13:39;;;;;;;0.80;0.35;;;4.80;99.90;;;;;;13083365;22;20345;-45
2021/04/17 02:19:08;;;;;;;1.60;0.43;;;4.70;99.90;;;;;;13080125;22;20011;-45
2021/04/17 02:24:29;;;;;;;4.55;1.00;;;4.60;99.90;;;;;;13079439;22;20019;-45
2021/04/17 02:29:55;;;;;;;3.15;0.63;;;4.60;99.90;;;;;;13078726;22;20413;-45
2021/04/17 02:35:17;;;;;;;1.58;0.50;;;4.60;99.90;;;;;;13080878;22;20105;-45
2021/04/17 02:40:37;;;;;;;1.38;0.40;;;4.60;99.90;;;;;;13080191;22;20084;-45
2021/04/17 02:45:58;;;;;;;2.47;0.85;;;4.50;99.90;;;;;;13079995;22;20018;-46
2021/04/17 02:51:19;;;;;;;1.63;0.65;;;4.60;99.90;;;;;;13079624;22;20307;-45
2021/04/17 02:56:40;;;;;;;0.38;0.22;;;4.60;99.90;;;;;;13082131;22;20442;-45
2021/04/17 03:02:02;;;;;;;1.92;0.70;;;4.70;99.90;;;;;;13077729;22;20050;-45
2021/04/17 03:07:23;;;;;;;1.13;0.57;;;4.80;99.90;;;;;;13079670;22;20114;-45
2021/04/17 03:12:44;;;;;;;2.65;0.63;;;4.90;99.90;;;;;;13080364;22;20454;-45
2021/04/17 03:18:06;;;;;;;2.30;0.80;;;4.90;99.90;;;;;;13079496;22;20064;-45
2021/04/17 03:23:27;;;;;;;1.00;0.73;;;4.90;99.90;;;;;;13080313;22;20019;-45
2021/04/17 03:28:47;;;;;;;3.08;1.15;;;4.90;99.90;;;;;;13078430;22;20101;-45
2021/04/17 03:34:09;;;;;;;2.50;0.80;;;4.80;99.90;;;;;;13078472;22;20007;-45
2021/04/17 03:39:29;;;;;;;2.63;1.02;;;4.70;99.90;;;;;;13080691;22;20015;-46
2021/04/17 03:44:51;;;;;;;2.78;1.00;;;4.70;99.90;;;;;;13079060;22;20397;-45
2021/04/17 03:50:13;;;;;;;6.28;1.10;;;4.70;99.90;;;;;;13080837;22;20520;-47
2021/04/17 03:55:34;;;;;;;2.15;1.23;;;4.70;99.90;;;;;;13080594;22;20226;-45
2021/04/17 04:00:55;;;;;;;3.30;1.05;;;4.70;99.90;;;;;;13075272;22;20053;-45
2021/04/17 04:06:18;;;;;;;2.75;0.90;;;4.60;99.90;;;;;;13079056;22;20473;-45
2021/04/17 04:11:39;;;;;;;3.20;1.17;;;4.60;99.90;;;;;;13079975;22;20475;-45
2021/04/17 04:17:01;;;;;;;3.58;1.48;;;4.50;99.90;;;;;;13077887;22;20021;-45
2021/04/17 04:22:22;;;;;;;2.90;1.30;;;4.40;99.90;;;;;;13074967;22;20014;-45
2021/04/17 04:27:43;;;;;;;4.30;1.83;;;4.30;99.90;;;;;;13052758;22;20110;-46
2021/04/17 04:33:04;;;;;;;2.50;1.60;;;4.20;99.90;;;;;;13076067;22;20515;-45
2021/04/17 04:38:25;;;;;;;3.03;0.88;;;4.20;99.90;;;;;;13078710;22;20086;-45
2021/04/17 04:43:46;;;;;;;3.60;1.52;;;4.00;99.90;;;;;;13079373;22;20018;-45
2021/04/17 04:49:07;;;;;;;8.75;1.30;;;4.00;99.90;;;;;;13077976;22;20018;-45
2021/04/17 04:54:28;;;;;;;4.75;1.80;;;4.00;99.90;;;;;;13076567;22;20015;-45
2021/04/17 04:59:49;;;;;;;3.70;1.33;;;4.00;99.90;;;;;;13077415;22;20117;-45
2021/04/17 05:05:10;;;;;;;3.05;1.10;;;4.00;99.90;;;;;;13078425;22;20041;-45
2021/04/17 05:10:37;;;;;;;3.78;1.73;;;4.00;99.90;;;;;;13064715;22;20015;-45
2021/04/17 05:16:13;;;;;;;2.00;1.17;;;4.10;99.90;;;;;;13037005;22;20043;-45
2021/04/17 05:21:56;;;;;;;2.50;1.02;;;4.10;99.90;;;;;;13028395;22;20034;-45
2021/04/17 05:27:17;;;;;;;3.38;1.05;;;4.10;99.90;;;;;;13073013;22;20015;-46
2021/04/17 05:32:40;;;;;;;4.78;1.50;;;4.10;99.90;;;;;;13080210;22;20021;-45
2021/04/17 05:38:04;;;;;;;3.13;1.30;;;4.10;99.90;;;;;;13081688;22;20014;-45
2021/04/17 05:43:26;;;;;;;1.30;0.68;;;4.30;99.90;;;;;;13081768;22;20106;-45
2021/04/17 05:48:47;;;;;;;3.20;1.30;;;4.40;99.90;;;;;;13082058;22;20072;-45
2021/04/17 05:54:09;;;;;;;2.83;0.93;;;4.70;99.90;;;;;;13082070;22;20224;-46
2021/04/17 05:59:30;;;;;;;1.75;0.85;;;4.90;99.90;;;;;;13083103;22;20029;-45
2021/04/17 06:04:51;;;;;;;2.08;0.80;;;5.10;99.90;;;;;;13080984;22;20527;-45
2021/04/17 06:10:13;;;;;;;2.28;1.08;;;5.30;99.90;;;;;;13081819;22;20010;-45
2021/04/17 06:15:34;;;;;;;9.40;1.13;;;5.50;99.90;;;;;;13082594;22;20011;-46
2021/04/17 06:20:55;;;;;;;2.42;1.05;;;5.60;99.90;;;;;;13084505;22;20023;-47
2021/04/17 06:26:16;;;;;;;3.70;1.27;;;5.70;99.90;;;;;;13081334;22;20513;-47
2021/04/17 06:31:37;;;;;;;3.70;0.77;;;5.90;99.90;;;;;;13085374;22;20007;-47
2021/04/17 06:36:58;;;;;;;2.25;0.80;;;6.10;99.90;;;;;;13084257;22;20011;-47
2021/04/17 06:42:22;;;;;;;2.55;0.80;;;6.20;99.90;;;;;;13064862;22;20049;-48
2021/04/17 06:47:43;;;;;;;2.00;0.55;;;6.50;99.90;;;;;;13084466;22;20019;-47
2021/04/17 06:53:08;;;;;;;1.73;0.50;;;6.80;99.90;;;;;;13082922;22;20010;-47
2021/04/17 06:58:29;;;;;;;2.20;0.60;;;7.10;99.90;;;;;;13083482;22;20023;-47
2021/04/17 07:03:50;;;;;;;3.17;0.70;;;7.30;99.90;;;;;;13083342;22;20015;-47
2021/04/17 07:09:13;;;;;;;2.00;0.60;;;7.50;99.90;;;;;;13084928;22;20026;-47
2021/04/17 07:14:43;;;;;;;1.40;0.38;;;7.60;99.90;;;;;;13063787;22;20343;-46
2021/04/17 07:20:07;;;;;;;1.70;0.50;;;7.80;99.90;;;;;;13079148;22;20104;-47
2021/04/17 07:25:28;;;;;;;2.22;0.50;;;7.90;99.90;;;;;;13082278;22;20412;-46
2021/04/17 07:30:49;;;;;;;1.48;0.55;;;8.00;99.90;;;;;;13044332;22;20034;-47
2021/04/17 07:36:10;;;;;;;2.40;1.08;;;8.20;99.90;;;;;;13081369;22;20006;-47
2021/04/17 07:41:38;;;;;;;0.85;0.30;;;8.30;99.90;;;;;;13075692;22;20019;-46
2021/04/17 07:46:59;;;;;;;1.45;0.70;;;8.30;99.90;;;;;;13071156;22;20520;-47
2021/04/17 07:52:19;;;;;;;1.65;0.68;;;8.50;99.90;;;;;;13081229;22;20453;-47
2021/04/17 08:03:24;;;;;;;4.32;1.52;;;8.60;99.90;;;;;;13079520;22;20098;-47
2021/04/17 08:08:46;;;;;;;1.63;0.35;;;8.70;99.90;;;;;;13060069;22;20022;-47
2021/04/17 08:14:09;;;;;;;0.77;0.52;;;8.80;99.90;;;;;;13086752;22;20003;-46
2021/04/17 08:25:14;;;;;;;0.90;0.30;;;9.20;99.90;;;;;;13087090;22;20011;-46
2021/04/17 08:30:35;;;;;;;4.43;0.50;;;9.20;99.90;;;;;;13080286;22;20393;-46
2021/04/17 08:35:55;;;;;;;2.13;1.15;;;9.40;99.90;;;;;;13082685;22;20083;-46
2021/04/17 08:41:39;;;;;;;0.80;0.40;;;9.60;99.90;;;;;;13086793;22;20042;-46
2021/04/17 08:47:03;;;;;;;0.10;0.10;;;9.80;99.90;;;;;;13050573;22;20014;-47
2021/04/17 08:52:25;;;;;;;0.63;0.22;;;10.00;99.90;;;;;;13081811;22;20011;-47
2021/04/17 08:58:09;;;;;;;1.17;0.20;;;10.10;99.90;;;;;;13080618;22;20011;-47
2021/04/17 09:03:34;;;;;;;1.60;0.30;;;10.20;99.90;;;;;;13053194;22;20014;-47
2021/04/17 09:09:16;;;;;;;0.68;0.28;;;10.50;99.90;;;;;;13051272;22;20014;-46
2021/04/17 09:21:42;;;;;;;;;;;;;;;;;;;;;
2021/04/17 09:27:04;;;;;;;2.55;0.75;;;11.20;99.90;;;;;;12905018;22;20073;-46
2021/04/17 09:32:35;;;;;;;0.63;0.20;;;11.20;99.90;;;;;;13087712;22;20574;-47
2021/04/17 09:37:59;;;;;;;1.27;0.30;;;11.40;99.90;;;;;;13083941;22;20010;-46
2021/04/17 09:43:32;;;;;;;2.55;0.30;;;11.70;99.90;;;;;;13090076;22;20034;-47
2021/04/17 09:48:53;;;;;;;1.20;0.25;;;12.00;99.90;;;;;;13086033;22;20542;-46
2021/04/17 09:54:14;;;;;;;1.35;0.50;;;12.20;99.90;;;;;;13084306;22;20511;-47
2021/04/17 09:59:36;;;;;;;0.73;0.30;;;12.40;99.90;;;;;;13084406;22;20019;-46
2021/04/17 10:04:58;;;;;;;1.42;0.57;;;12.50;99.90;;;;;;13085051;22;20097;-46
2021/04/17 10:10:20;;;;;;;1.50;0.40;;;12.70;99.90;;;;;;13082788;22;20018;-47
2021/04/17 10:15:46;;;;;;;1.92;0.30;;;12.70;99.90;;;;;;13086637;22;20437;-47
2021/04/17 10:21:09;;;;;;;0.73;0.20;;;12.90;99.90;;;;;;13100471;22;20018;-47
2021/04/17 10:26:30;;;;;;;0.50;0.13;;;13.30;99.90;;;;;;13078865;22;20015;-46
2021/04/17 10:32:05;;;;;;;0.90;0.50;;;13.20;99.60;;;;;;13081869;22;20093;-47
2021/04/17 10:37:26;;;;;;;1.52;0.85;;;13.50;97.20;;;;;;13090748;22;20014;-47
2021/04/17 10:42:55;;;;;;;1.15;0.20;;;13.70;97.60;;;;;;13089324;22;20106;-46
2021/04/17 10:48:19;;;;;;;1.17;0.25;;;13.80;93.30;;;;;;13088643;22;20030;-46
2021/04/17 10:53:43;;;;;;;0.90;0.50;;;14.00;95.30;;;;;;13089706;22;20010;-47
2021/04/17 10:59:05;;;;;;;1.73;0.30;;;14.20;93.00;;;;;;13089180;22;20354;-46
2021/04/17 11:04:26;;;;;;;0.68;0.30;;;14.20;94.80;;;;;;13088351;22;20454;-47
2021/04/17 11:09:48;;;;;;;5.00;0.45;;;14.10;94.30;;;;;;13087582;22;20114;-46
2021/04/17 11:15:24;;;;;;;5.78;0.55;;;14.20;94.00;;;;;;13072495;22;20049;-47
2021/04/17 11:27:10;;;;;;;1.10;0.50;;;14.80;94.10;;;;;;13080962;22;20015;-83
2021/04/17 11:32:31;;;;;;;2.00;0.20;;;15.10;90.90;;;;;;13055024;22;20015;-84
2021/04/17 11:37:52;;;;;;;2.20;0.30;;;15.20;84.80;;;;;;13053917;22;20442;-80
2021/04/17 11:43:13;;;;;;;3.83;0.73;;;15.30;79.70;;;;;;13044221;22;20014;-80
2021/04/17 11:48:34;;;;;;;2.40;0.32;;;15.90;70.80;;;;;;13051385;22;20027;-80
2021/04/17 11:53:54;;;;;;;0.15;0.00;;;16.00;69.60;;;;;;13072840;22;20019;-80
2021/04/17 11:59:15;;;;;;;3.17;0.73;;;16.40;73.00;;;;;;13098316;22;20043;-80
2021/04/17 12:04:36;;;;;;;0.77;0.17;;;16.20;70.00;;;;;;13080086;22;20010;-79
2021/04/17 12:09:57;;;;;;;0.77;0.20;;;16.40;71.60;;;;;;13099649;22;20019;-79
2021/04/17 12:15:18;;;;;;;0.98;0.30;;;17.20;67.10;;;;;;13111038;22;20019;-81
2021/04/17 12:20:39;;;;;;;1.05;0.30;;;17.40;59.00;;;;;;13076808;22;20017;-82
2021/04/17 12:26:01;;;;;;;0.50;0.10;;;17.30;59.60;;;;;;13097141;22;20034;-82
2021/04/17 12:31:22;;;;;;;2.05;0.52;;;16.90;58.50;;;;;;13074722;22;20037;-81
2021/04/17 12:36:43;;;;;;;0.60;0.40;;;17.10;58.50;;;;;;13076393;22;20089;-81
2021/04/17 12:42:04;;;;;;;0.50;0.20;;;17.30;59.90;;;;;;13076605;22;20036;-81
2021/04/17 12:47:25;;;;;;;1.80;0.22;;;17.70;58.60;;;;;;13077108;22;20019;-81
2021/04/17 12:52:46;;;;;;;1.13;0.40;;;17.70;59.30;;;;;;13097053;22;20587;-80
2021/04/17 12:58:07;;;;;;;1.23;0.40;;;18.10;60.00;;;;;;13073827;22;20014;-80
2021/04/17 13:03:28;;;;;;;0.90;0.35;;;18.70;56.90;;;;;;13093500;22;20097;-79
2021/04/17 13:08:49;;;;;;;1.23;0.28;;;19.10;53.20;;;;;;13078335;22;20011;-82
2021/04/17 13:14:10;;;;;;;0.90;0.20;;;18.40;52.70;;;;;;13080861;22;20006;-80
2021/04/17 13:19:31;;;;;;;1.00;0.32;;;18.40;54.70;;;;;;13080804;22;20013;-81
2021/04/17 13:24:54;;;;;;;1.52;0.52;;;18.60;51.00;;;;;;13096539;22;20010;-81
2021/04/17 13:30:16;;;;;;;1.73;0.50;;;18.30;51.00;;;;;;13077978;22;20128;-81
2021/04/17 13:35:37;;;;;;;1.70;0.60;;;19.10;51.80;;;;;;13100302;22;20015;-81
2021/04/17 13:40:58;;;;;;;2.38;0.60;;;18.80;50.10;;;;;;13077041;22;20027;-82
2021/04/17 13:46:19;;;;;;;2.08;0.32;;;18.80;51.20;;;;;;13077670;22;20021;-82
2021/04/17 13:51:40;;;;;;;1.98;0.52;;;18.70;50.20;;;;;;13081952;22;20002;-82
2021/04/17 13:57:01;;;;;;;1.27;0.30;;;18.30;51.40;;;;;;13104903;22;20086;-80
2021/04/17 14:02:22;;;;;;;3.55;0.95;;;18.10;53.40;;;;;;13081857;22;20454;-80
2021/04/17 14:07:43;;;;;;;2.05;0.63;;;17.30;52.40;;;;;;13081627;22;20015;-80
2021/04/17 14:13:04;;;;;;;0.80;0.40;;;16.40;56.30;;;;;;13085752;22;20018;-82
2021/04/17 14:18:25;;;;;;;0.73;0.30;;;15.80;58.00;;;;;;13080788;22;20011;-81
2021/04/17 14:23:48;;;;;;;0.68;0.30;;;15.50;59.30;;;;;;13084413;22;20007;-81
2021/04/17 14:29:09;;;;;;;3.13;0.40;;;15.00;62.90;;;;;;13084623;22;20070;-82
2021/04/17 14:34:30;;;;;;;0.55;0.20;;;14.60;68.70;;;;;;13104264;22;20096;-80
2021/04/17 14:39:51;;;;;;;1.02;0.20;;;14.10;69.80;;;;;;13105006;22;20052;-82
2021/04/17 14:45:13;;;;;;;6.70;1.08;;;13.90;73.10;;;;;;13105793;22;20049;-82
2021/04/17 14:50:34;;;;;;;0.95;0.43;;;13.30;77.90;;;;;;13104835;22;20018;-81
2021/04/17 14:55:55;;;;;;;0.95;0.20;;;13.10;79.00;;;;;;13107864;22;20045;-82
2021/04/17 15:01:16;;;;;;;0.80;0.50;;;13.00;83.50;;;;;;13086457;22;20035;-82
2021/04/17 15:06:37;;;;;;;4.10;0.80;;;13.00;86.00;;;;;;13107760;22;20007;-81
2021/04/17 15:11:58;;;;;;;1.10;0.30;;;13.00;87.50;;;;;;13087173;22;20021;-83
2021/04/17 15:17:19;;;;;;;2.40;0.57;;;13.00;90.90;;;;;;13081880;22;19999;-82
2021/04/17 15:22:40;;;;;;;4.10;0.60;;;13.00;87.10;;;;;;13087529;22;20042;-82
2021/04/17 15:28:01;;;;;;;2.33;0.50;;;13.00;91.10;;;;;;13081262;22;20023;-83
2021/04/17 15:33:23;;;;;;;0.95;0.65;;;12.80;90.40;;;;;;13104600;22;20032;-82
2021/04/17 15:38:44;;;;;;;1.60;0.50;;;12.70;93.60;;;;;;13084141;22;20514;-83
2021/04/17 15:44:09;;;;;;;0.75;0.30;;;12.60;93.00;;;;;;13079779;22;20003;-83
2021/04/17 15:49:30;;;;;;;3.17;0.25;;;12.40;94.10;;;;;;13078326;22;20093;-83
2021/04/17 15:54:51;;;;;;;1.63;0.47;;;12.20;95.50;;;;;;13102607;22;20014;-83
2021/04/17 16:17:06;;;;;;;2.05;0.30;;;12.10;99.00;;;;;;13092006;22;20003;-85
2021/04/17 16:22:27;;;;;;;2.65;0.68;;;11.90;98.90;;;;;;13089640;22;20375;-83
2021/04/17 16:27:48;;;;;;;1.00;0.80;;;11.90;98.80;;;;;;13075907;22;20455;-84
2021/04/17 16:33:09;;;;;;;1.80;0.30;;;11.90;98.10;;;;;;13075832;22;20003;-83
2021/04/17 16:38:31;;;;;;;1.10;0.35;;;11.90;99.90;;;;;;13079801;22;20038;-84
2021/04/17 16:43:52;;;;;;;1.65;0.40;;;11.80;98.90;;;;;;13079402;22;20014;-82
2021/04/17 16:49:13;;;;;;;0.85;0.32;;;11.70;98.80;;;;;;13080487;22;20015;-83
2021/04/17 16:54:34;;;;;;;1.33;0.32;;;11.50;98.80;;;;;;13081127;22;20014;-84
2021/04/17 16:59:55;;;;;;;1.80;0.40;;;11.40;98.20;;;;;;13083458;22;20015;-83
2021/04/17 17:05:17;;;;;;;0.65;0.30;;;11.30;99.70;;;;;;13101152;22;20093;-81
2021/04/17 17:10:39;;;;;;;2.03;0.93;;;11.20;99.90;;;;;;13079185;22;20076;-83
2021/04/17 17:15:59;;;;;;;0.65;0.28;;;11.10;99.90;;;;;;13104788;22;20007;-83
2021/04/17 17:21:20;;;;;;;0.80;0.43;;;11.20;99.90;;;;;;13080975;22;20841;-84
2021/04/17 17:26:41;;;;;;;1.70;0.35;;;11.10;99.90;;;;;;13106022;22;20007;-86
2021/04/17 17:32:03;;;;;;;1.48;0.22;;;11.20;99.90;;;;;;13111778;22;20023;-87
2021/04/17 17:37:24;;;;;;;0.63;0.40;;;11.10;99.90;;;;;;13096595;22;20011;-83
2021/04/17 17:42:45;;;;;;;0.93;0.52;;;10.80;99.90;;;;;;13079868;22;20011;-83
2021/04/17 17:48:07;;;;;;;5.13;1.10;;;10.60;99.90;;;;;;13082637;22;20029;-84
2021/04/17 17:53:28;;;;;;;1.05;0.30;;;10.50;99.90;;;;;;13085049;22;20018;-83
2021/04/17 17:58:49;;;;;;;1.55;0.47;;;10.30;99.90;;;;;;13084397;22;20007;-83
2021/04/17 18:04:10;;;;;;;2.28;0.93;;;10.30;99.90;;;;;;13084460;22;20071;-83
2021/04/17 18:09:31;;;;;;;3.80;0.93;;;10.20;99.90;;;;;;13089399;22;20050;-84
2021/04/17 18:14:52;;;;;;;1.45;0.30;;;10.00;99.90;;;;;;13084729;22;20095;-84
2021/04/17 18:20:13;;;;;;;5.43;1.15;;;10.00;99.90;;;;;;13086487;22;20018;-84
2021/04/17 18:25:34;;;;;;;3.00;0.57;;;9.90;99.90;;;;;;13087582;22;20136;-84
2021/04/17 18:31:18;;;;;;;1.08;0.30;;;9.80;99.90;;;;;;13026513;22;20031;-84
2021/04/17 18:36:35;;;;;;;1.45;0.57;;;9.70;99.90;;;;;;12905306;23;20467;-47
2021/04/17 18:41:57;;;;;;;1.38;0.47;;;9.50;99.90;;;;;;12883830;23;20012;-48
2021/04/17 18:47:18;;;;;;;2.05;0.95;;;9.30;99.90;;;;;;12886386;23;20094;-48
2021/04/17 18:52:39;;;;;;;0.77;0.30;;;9.30;99.90;;;;;;12886905;23;20083;-48
2021/04/17 18:58:00;;;;;;;1.95;0.40;;;9.20;99.90;;;;;;12883947;23;20023;-48
2021/04/17 19:03:21;;;;;;;1.75;0.93;;;9.10;99.90;;;;;;12885319;22;20023;-48
2021/04/17 19:08:42;;;;;;;4.05;0.73;;;9.00;99.90;;;;;;12882502;23;20483;-48
2021/04/17 19:14:07;;;;;;;1.33;0.38;;;9.00;99.90;;;;;;12886659;22;20012;-47
2021/04/17 19:19:28;;;;;;;1.48;0.50;;;8.90;99.90;;;;;;12880800;23;20016;-48
2021/04/17 19:24:49;;;;;;;1.30;0.45;;;8.80;99.90;;;;;;12881938;23;20102;-48
2021/04/17 19:30:11;;;;;;;1.13;0.40;;;8.80;99.90;;;;;;12885442;22;20657;-48
2021/04/17 19:35:32;;;;;;;1.45;0.57;;;8.80;99.90;;;;;;12980832;22;20034;-48
2021/04/17 19:40:53;;;;;;;2.00;0.98;;;8.80;99.90;;;;;;13010751;22;20093;-48
2021/04/17 19:46:14;;;;;;;1.20;0.82;;;8.70;99.90;;;;;;13008633;22;20023;-48
2021/04/17 19:51:35;;;;;;;1.70;0.85;;;8.70;99.90;;;;;;13010972;22;20011;-48
2021/04/17 19:56:57;;;;;;;5.57;0.75;;;8.50;99.90;;;;;;13010516;22;20540;-48
2021/04/17 20:02:19;;;;;;;7.88;1.40;;;8.50;99.90;;;;;;13004939;22;20015;-48
2021/04/17 20:07:40;;;;;;;1.00;0.40;;;8.50;99.90;;;;;;13008469;22;20043;-48
2021/04/17 20:13:02;;;;;;;1.30;0.50;;;8.40;99.90;;;;;;13011585;22;20011;-48
2021/04/17 20:18:23;;;;;;;1.88;0.52;;;8.30;99.90;;;;;;13005815;22;20015;-48
2021/04/17 20:23:44;;;;;;;1.80;0.85;;;8.30;99.90;;;;;;13029767;22;20482;-48
2021/04/17 20:29:06;;;;;;;2.78;0.80;;;8.20;99.90;;;;;;13011010;22;20058;-48
2021/04/17 20:34:27;;;;;;;1.58;0.50;;;8.20;99.90;;;;;;13012092;22;20033;-48
2021/04/17 20:39:48;;;;;;;1.58;0.50;;;8.20;99.90;;;;;;13010313;22;20362;-48
2021/04/17 20:45:09;;;;;;;1.80;0.90;;;8.20;99.90;;;;;;13010797;22;20068;-48
2021/04/17 20:50:30;;;;;;;1.75;0.55;;;8.20;99.90;;;;;;13032290;22;20493;-48
2021/04/17 20:55:52;;;;;;;0.90;0.50;;;8.10;99.90;;;;;;13013607;22;20110;-48
2021/04/17 21:01:13;;;;;;;5.60;0.65;;;7.90;99.90;;;;;;13013457;22;20072;-48
2021/04/17 21:06:34;;;;;;;1.13;0.60;;;7.80;99.90;;;;;;13021123;22;20451;-48
2021/04/17 21:11:55;;;;;;;2.50;0.82;;;7.70;99.90;;;;;;13019931;22;20102;-48
2021/04/17 21:17:16;;;;;;;2.08;0.65;;;7.70;99.90;;;;;;13024100;22;20190;-48
2021/04/17 21:22:37;;;;;;;2.75;0.98;;;7.70;99.90;;;;;;13021077;22;20588;-48
2021/04/17 21:27:58;;;;;;;3.05;0.90;;;7.60;99.90;;;;;;13026186;22;20015;-48
2021/04/17 21:33:19;;;;;;;2.67;0.98;;;7.50;99.90;;;;;;13022696;22;20023;-48
2021/04/17 21:38:40;;;;;;;1.98;0.57;;;7.40;99.90;;;;;;13023347;22;20027;-48
2021/04/17 21:44:02;;;;;;;1.30;0.65;;;7.20;99.90;;;;;;13021369;22;20512;-48
2021/04/17 21:49:23;;;;;;;7.35;1.63;;;7.20;99.90;;;;;;13023213;22;20015;-47
2021/04/17 21:54:44;;;;;;;4.40;1.05;;;7.10;99.90;;;;;;13025044;22;20012;-47
2021/04/17 22:00:21;;;;;;;2.95;0.82;;;7.00;99.90;;;;;;13028248;22;20250;-48
2021/04/17 22:05:42;;;;;;;4.38;1.15;;;7.10;99.90;;;;;;13021922;22;20011;-48
2021/04/17 22:11:03;;;;;;;0.77;0.45;;;7.00;99.90;;;;;;13019339;22;20011;-48
2021/04/17 22:16:26;;;;;;;2.35;0.65;;;6.90;99.90;;;;;;13023234;22;20012;-48
2021/04/17 22:21:47;;;;;;;2.17;1.05;;;6.80;99.90;;;;;;13027011;22;20396;-48
2021/04/17 22:27:08;;;;;;;3.05;0.60;;;6.70;99.90;;;;;;13023975;22;20048;-48
2021/04/17 22:32:29;;;;;;;1.52;0.57;;;6.70;99.90;;;;;;13022119;22;20046;-47
2021/04/17 22:37:51;;;;;;;2.65;0.47;;;6.50;99.90;;;;;;13021468;22;20019;-47
2021/04/17 22:43:12;;;;;;;3.20;0.68;;;6.40;99.90;;;;;;13025439;22;20019;-48
2021/04/17 22:48:33;;;;;;;3.63;0.80;;;6.40;99.90;;;;;;13021923;22;20086;-48
2021/04/17 22:53:54;;;;;;;3.08;1.15;;;6.40;99.90;;;;;;13022961;22;20100;-47
2021/04/17 22:59:15;;;;;;;2.67;0.65;;;6.30;99.90;;;;;;13020245;22;20148;-48
2021/04/17 23:04:37;;;;;;;3.92;1.27;;;6.20;99.90;;;;;;13020725;22;20505;-48
2021/04/17 23:09:58;;;;;;;4.88;0.80;;;6.20;99.90;;;;;;13021126;22;20481;-47
2021/04/17 23:15:20;;;;;;;4.68;1.65;;;6.20;99.90;;;;;;13025457;22;20087;-48
2021/04/17 23:20:41;;;;;;;4.18;1.40;;;6.20;99.90;;;;;;13020543;22;20086;-48
2021/04/17 23:26:02;;;;;;;1.70;0.70;;;6.20;99.90;;;;;;13023750;22;20023;-48
2021/04/17 23:31:23;;;;;;;2.67;1.08;;;6.20;99.90;;;;;;13024455;22;20022;-48
2021/04/17 23:36:44;;;;;;;3.80;1.13;;;6.10;99.90;;;;;;13024753;22;20027;-48
2021/04/17 23:42:06;;;;;;;3.50;1.10;;;6.10;99.90;;;;;;13023502;22;20011;-48
2021/04/17 23:47:27;;;;;;;5.50;1.45;;;6.00;99.90;;;;;;13025051;22;20451;-48
2021/04/17 23:52:48;;;;;;;2.33;1.25;;;5.90;99.90;;;;;;13022033;22;20520;-48
2021/04/17 23:58:09;;;;;;;2.85;1.10;;;5.80;99.90;;;;;;13023574;22;20403;-48
